createdAt,value
2023-02-11T00:00:26.100Z,52523.45
2023-02-11T00:02:59.071Z,52537.11
2023-02-11T00:05:32.103Z,52555.20
2023-02-11T00:08:05.307Z,52531.89
2023-02-11T00:10:38.931Z,52551.57
2023-02-11T00:13:12.166Z,52554.79
2023-02-11T00:15:46.452Z,52547.55
2023-02-11T00:18:20.386Z,52562.83
2023-02-11T00:20:53.396Z,52545.55
2023-02-11T00:23:26.333Z,52548.36
2023-02-11T00:26:00.019Z,52545.55
2023-02-11T00:28:33.551Z,52551.18
2023-02-11T00:31:07.288Z,52552.38
2023-02-11T00:33:42.145Z,52549.17
2023-02-11T00:36:18.310Z,52549.97
2023-02-11T00:38:53.439Z,52543.94
2023-02-11T00:41:27.183Z,52557.21
2023-02-11T00:44:00.737Z,52559.21
2023-02-11T00:46:34.021Z,52538.71
2023-02-11T00:49:07.836Z,52532.29
2023-02-11T00:51:41.780Z,52555.20
2023-02-11T00:54:14.980Z,52560.01
2023-02-11T00:56:48.061Z,52551.98
2023-02-11T00:59:21.460Z,52532.69
2023-02-11T01:01:54.420Z,52547.16
2023-02-11T01:04:27.805Z,52546.35
2023-02-11T01:07:00.723Z,52557.61
2023-02-11T01:09:33.880Z,52552.38
2023-02-11T01:12:07.488Z,52560.42
2023-02-11T01:14:41.345Z,52537.91
2023-02-11T01:17:14.249Z,52543.54
2023-02-11T01:19:47.839Z,52560.42
2023-02-11T01:22:20.936Z,52559.21
2023-02-11T01:24:54.300Z,52535.50
2023-02-11T01:27:27.652Z,52540.73
2023-02-11T01:30:02.352Z,52544.74
2023-02-11T01:32:35.960Z,52551.98
2023-02-11T01:35:11.294Z,52540.32
2023-02-11T01:37:44.811Z,52561.23
2023-02-11T01:40:20.279Z,52546.35
2023-02-11T01:42:53.342Z,52554.79
2023-02-11T01:46:11.103Z,52557.61
2023-02-11T01:48:45.466Z,52564.04
2023-02-11T01:51:20.113Z,52561.22
2023-02-11T01:54:10.853Z,52560.42
2023-02-11T01:57:05.234Z,52546.76
2023-02-11T01:59:41.328Z,52568.05
2023-02-11T02:02:15.314Z,52545.95
2023-02-11T02:04:52.836Z,52564.04
2023-02-11T02:07:30.621Z,52563.64
2023-02-11T02:10:06.525Z,52549.97
2023-02-11T02:12:59.698Z,52558.81
2023-02-11T02:15:33.494Z,52557.20
2023-02-11T02:18:19.539Z,52564.84
2023-02-11T02:21:29.458Z,52568.05
2023-02-11T02:24:25.754Z,52560.82
2023-02-11T02:27:10.437Z,52581.72
2023-02-11T02:30:15.769Z,52561.23
2023-02-11T02:32:55.825Z,52571.27
2023-02-11T02:35:34.698Z,52565.24
2023-02-11T02:38:10.570Z,52565.64
2023-02-11T02:40:50.347Z,52565.64
2023-02-11T02:43:23.535Z,52561.23
2023-02-11T02:45:56.397Z,52562.02
2023-02-11T02:48:33.219Z,52555.20
2023-02-11T02:51:10.682Z,52576.50
2023-02-11T02:53:50.041Z,52569.66
2023-02-11T02:56:25.129Z,52561.63
2023-02-11T02:59:19.578Z,52558.81
2023-02-11T03:01:55.425Z,52547.96
2023-02-11T03:04:30.936Z,52568.86
2023-02-11T03:07:05.669Z,52555.59
2023-02-11T03:09:40.724Z,52586.54
2023-02-11T03:12:13.642Z,52552.39
2023-02-11T03:14:47.219Z,52570.06
2023-02-11T03:17:20.315Z,52575.69
2023-02-11T03:19:54.108Z,52570.06
2023-02-11T03:22:29.595Z,52576.09
2023-02-11T03:25:02.882Z,52556.80
2023-02-11T03:27:38.978Z,52553.18
2023-02-11T03:30:14.761Z,52574.09
2023-02-11T03:32:51.007Z,52554.39
2023-02-11T03:35:25.945Z,52562.83
2023-02-11T03:38:01.552Z,52565.24
2023-02-11T03:40:36.957Z,52555.59
2023-02-11T03:43:10.421Z,52559.21
2023-02-11T03:45:46.257Z,52581.72
2023-02-11T03:48:20.844Z,52579.71
2023-02-11T03:50:53.845Z,52554.39
2023-02-11T03:53:27.229Z,52566.85
2023-02-11T03:56:01.632Z,52551.98
2023-02-11T03:58:34.815Z,52555.20
2023-02-11T04:01:10.139Z,52564.44
2023-02-11T04:03:44.029Z,52556.40
2023-02-11T04:06:17.020Z,52563.64
2023-02-11T04:08:50.271Z,52578.10
2023-02-11T04:11:27.061Z,52571.68
2023-02-11T04:13:59.741Z,52554.39
2023-02-11T04:16:34.258Z,52572.07
2023-02-11T04:19:08.180Z,52552.38
2023-02-11T04:21:41.932Z,52579.71
2023-02-11T04:24:16.916Z,52586.54
2023-02-11T04:26:49.986Z,52555.60
2023-02-11T04:29:23.340Z,52560.42
2023-02-11T04:31:56.626Z,52582.12
2023-02-11T04:34:30.539Z,52549.16
2023-02-11T04:37:08.649Z,52556.40
2023-02-11T04:39:43.376Z,52561.63
2023-02-11T04:42:21.486Z,52569.26
2023-02-11T04:44:57.233Z,52571.67
2023-02-11T04:47:30.940Z,52565.24
2023-02-11T04:50:04.850Z,52558.01
2023-02-11T04:52:38.488Z,52573.68
2023-02-11T04:55:12.106Z,52556.00
2023-02-11T04:57:45.284Z,52581.32
2023-02-11T05:00:19.936Z,52556.00
2023-02-11T05:02:52.886Z,52561.63
2023-02-11T05:05:26.035Z,52557.20
2023-02-11T05:08:00.258Z,52569.26
2023-02-11T05:10:33.252Z,52556.80
2023-02-11T05:13:06.381Z,52569.66
2023-02-11T05:15:40.490Z,52538.72
2023-02-11T05:18:15.073Z,52568.46
2023-02-11T05:20:48.092Z,52556.40
2023-02-11T05:23:21.352Z,52580.11
2023-02-11T05:25:54.429Z,52569.26
2023-02-11T05:28:27.384Z,52564.44
2023-02-11T05:31:01.177Z,52555.59
2023-02-11T05:33:35.234Z,52562.02
2023-02-11T05:36:10.551Z,52555.60
2023-02-11T05:38:44.186Z,52558.41
2023-02-11T05:41:17.066Z,52567.65
2023-02-11T05:43:51.348Z,52574.08
2023-02-11T05:46:24.625Z,52568.86
2023-02-11T05:48:57.965Z,52548.36
2023-02-11T05:51:31.148Z,52558.41
2023-02-11T05:54:04.403Z,52557.21
2023-02-11T05:56:37.631Z,52566.85
2023-02-11T05:59:10.937Z,52566.04
2023-02-11T06:01:43.895Z,52574.49
2023-02-11T06:04:16.994Z,52562.02
2023-02-11T06:06:49.720Z,52565.64
2023-02-11T06:09:22.668Z,52560.82
2023-02-11T06:11:55.694Z,52562.02
2023-02-11T06:14:29.351Z,52563.23
2023-02-11T06:17:02.878Z,52576.09
2023-02-11T06:19:35.913Z,52542.74
2023-02-11T06:22:09.371Z,52557.61
2023-02-11T06:25:00.354Z,52557.21
2023-02-11T06:27:38.097Z,52565.24
2023-02-11T06:30:13.041Z,52559.21
2023-02-11T06:32:46.432Z,52551.18
2023-02-11T06:35:19.754Z,52548.36
2023-02-11T06:37:54.763Z,52558.41
2023-02-11T06:40:27.778Z,52553.18
2023-02-11T06:43:00.768Z,52547.56
2023-02-11T06:45:34.370Z,52557.61
2023-02-11T06:48:07.716Z,52546.35
2023-02-11T06:50:40.656Z,52544.34
2023-02-11T06:53:14.106Z,52541.53
2023-02-11T06:55:46.864Z,52542.33
2023-02-11T06:58:19.996Z,52541.93
2023-02-11T07:00:52.794Z,52540.32
2023-02-11T07:03:25.885Z,52532.29
2023-02-11T07:05:59.265Z,52511.39
2023-02-11T07:08:32.119Z,52525.86
2023-02-11T07:11:10.071Z,52534.30
2023-02-11T07:13:43.564Z,52518.63
2023-02-11T07:16:17.612Z,52534.70
2023-02-11T07:18:50.932Z,52509.78
2023-02-11T07:21:24.543Z,52522.64
2023-02-11T07:23:57.413Z,52517.01
2023-02-11T07:26:31.342Z,52522.64
2023-02-11T07:29:04.827Z,52517.41
2023-02-11T07:31:37.677Z,52520.63
2023-02-11T07:34:15.044Z,52523.84
2023-02-11T07:36:49.230Z,52514.60
2023-02-11T07:39:22.831Z,52518.62
2023-02-11T07:41:56.018Z,52508.18
2023-02-11T07:44:30.541Z,52513.80
2023-02-11T07:47:03.379Z,52515.81
2023-02-11T07:49:37.415Z,52510.59
2023-02-11T07:52:10.435Z,52506.96
2023-02-11T07:54:43.973Z,52515.00
2023-02-11T07:57:17.446Z,52498.13
2023-02-11T07:59:51.831Z,52479.64
2023-02-11T08:02:24.941Z,52505.76
2023-02-11T08:04:58.115Z,52499.73
2023-02-11T08:07:31.715Z,52489.28
2023-02-11T08:10:04.687Z,52489.69
2023-02-11T08:12:38.027Z,52484.46
2023-02-11T08:15:12.151Z,52502.95
2023-02-11T08:17:45.045Z,52468.79
2023-02-11T08:20:18.079Z,52489.28
2023-02-11T08:22:51.186Z,52478.84
2023-02-11T08:25:24.315Z,52474.82
2023-02-11T08:27:57.208Z,52473.61
2023-02-11T08:30:30.313Z,52462.76
2023-02-11T08:33:04.421Z,52482.05
2023-02-11T08:35:40.026Z,52458.74
2023-02-11T08:38:15.035Z,52458.74
2023-02-11T08:40:49.882Z,52461.96
2023-02-11T08:43:23.947Z,52451.11
2023-02-11T08:45:59.504Z,52466.78
2023-02-11T08:48:33.919Z,52448.70
2023-02-11T08:51:11.203Z,52436.64
2023-02-11T08:53:43.937Z,52441.06
2023-02-11T08:56:17.649Z,52426.99
2023-02-11T08:58:50.690Z,52431.01
2023-02-11T09:01:24.968Z,52420.56
2023-02-11T09:03:57.905Z,52443.47
2023-02-11T09:06:30.651Z,52425.79
2023-02-11T09:09:03.954Z,52422.17
2023-02-11T09:11:37.667Z,52423.38
2023-02-11T09:14:12.924Z,52424.98
2023-02-11T09:16:45.713Z,52434.63
2023-02-11T09:19:23.306Z,52406.90
2023-02-11T09:21:56.413Z,52412.52
2023-02-11T09:24:29.648Z,52416.95
2023-02-11T09:27:02.493Z,52394.04
2023-02-11T09:29:36.174Z,52411.32
2023-02-11T09:32:09.998Z,52410.52
2023-02-11T09:34:43.292Z,52393.23
2023-02-11T09:37:16.776Z,52401.27
2023-02-11T09:39:50.119Z,52389.62
2023-02-11T09:42:41.045Z,52407.30
2023-02-11T09:45:17.646Z,52409.71
2023-02-11T09:47:52.856Z,52390.82
2023-02-11T09:50:32.593Z,52387.61
2023-02-11T09:53:07.151Z,52409.71
2023-02-11T09:55:43.116Z,52406.09
2023-02-11T09:58:17.786Z,52391.23
2023-02-11T10:00:53.852Z,52381.58
2023-02-11T10:03:36.498Z,52388.01
2023-02-11T10:06:20.815Z,52387.61
2023-02-11T10:09:00.937Z,52391.23
2023-02-11T10:11:40.146Z,52399.66
2023-02-11T10:14:26.467Z,52373.54
2023-02-11T10:17:04.796Z,52377.16
2023-02-11T10:19:45.591Z,52370.32
2023-02-11T10:22:20.917Z,52386.00
2023-02-11T10:24:59.263Z,52372.74
2023-02-11T10:27:35.192Z,52363.10
2023-02-11T10:30:11.629Z,52382.38
2023-02-11T10:32:45.892Z,52372.34
2023-02-11T10:35:21.638Z,52378.77
2023-02-11T10:37:54.857Z,52363.89
2023-02-11T10:40:28.951Z,52378.37
2023-02-11T10:43:03.216Z,52390.02
2023-02-11T10:45:37.752Z,52359.48
2023-02-11T10:48:44.195Z,52379.17
2023-02-11T10:51:26.560Z,52349.43
2023-02-11T10:54:19.783Z,52361.89
2023-02-11T10:56:53.713Z,52362.29
2023-02-11T10:59:28.685Z,52377.56
2023-02-11T11:02:02.300Z,52361.49
2023-02-11T11:04:41.232Z,52365.51
2023-02-11T11:07:16.286Z,52348.23
2023-02-11T11:09:52.455Z,52364.70
2023-02-11T11:12:35.062Z,52364.30
2023-02-11T11:15:19.129Z,52366.30
2023-02-11T11:18:21.435Z,52354.65
2023-02-11T11:21:01.159Z,52356.66
2023-02-11T11:23:36.459Z,52374.35
2023-02-11T11:26:13.153Z,52343.80
2023-02-11T11:28:52.431Z,52338.58
2023-02-11T11:31:26.802Z,52350.64
2023-02-11T11:34:02.207Z,52344.61
2023-02-11T11:36:41.728Z,52342.60
2023-02-11T11:39:21.722Z,52329.34
2023-02-11T11:41:56.058Z,52340.99
2023-02-11T11:44:33.919Z,52318.89
2023-02-11T11:47:25.220Z,52316.88
2023-02-11T11:50:17.397Z,52305.63
2023-02-11T11:52:54.654Z,52316.07
2023-02-11T11:55:29.546Z,52326.92
2023-02-11T11:58:02.826Z,52306.83
2023-02-11T12:00:39.406Z,52312.46
2023-02-11T12:03:40.192Z,52294.37
2023-02-11T12:06:20.038Z,52324.91
2023-02-11T12:08:59.875Z,52305.63
2023-02-11T12:11:37.480Z,52310.85
2023-02-11T12:14:16.588Z,52314.47
2023-02-11T12:16:54.652Z,52326.93
2023-02-11T12:19:56.594Z,52300.80
2023-02-11T12:22:38.458Z,52300.80
2023-02-11T12:25:30.113Z,52315.27
2023-02-11T12:28:12.205Z,52314.87
2023-02-11T12:30:51.622Z,52333.75
2023-02-11T12:33:31.773Z,52341.79
2023-02-11T12:36:06.941Z,52352.65
2023-02-11T12:39:05.112Z,52392.43
2023-02-11T12:42:08.846Z,52368.72
2023-02-11T12:44:54.308Z,52374.75
2023-02-11T12:47:30.007Z,52377.16
2023-02-11T12:50:09.825Z,52389.21
2023-02-11T12:52:51.507Z,52367.51
2023-02-11T12:55:23.546Z,52389.62
2023-02-11T12:57:57.085Z,52397.25
2023-02-11T13:00:31.711Z,52363.09
2023-02-11T13:03:05.896Z,52396.45
2023-02-11T13:05:41.094Z,52375.55
2023-02-11T13:08:15.555Z,52398.46
2023-02-11T13:10:52.303Z,52385.20
2023-02-11T13:13:26.978Z,52376.36
2023-02-11T13:16:04.397Z,52408.51
2023-02-11T13:18:56.427Z,52399.66
2023-02-11T13:21:54.308Z,52398.05
2023-02-11T13:24:32.966Z,52407.70
2023-02-11T13:27:11.270Z,52411.72
2023-02-11T13:29:58.700Z,52402.88
2023-02-11T13:32:31.553Z,52418.55
2023-02-11T13:35:04.322Z,52415.74
2023-02-11T13:37:39.649Z,52395.24
2023-02-11T13:40:25.088Z,52404.89
2023-02-11T13:42:59.185Z,52410.91
2023-02-11T13:45:35.256Z,52422.97
2023-02-11T13:48:10.283Z,52414.54
2023-02-11T13:50:48.284Z,52431.01
2023-02-11T13:53:21.577Z,52410.52
2023-02-11T13:55:55.909Z,52408.11
2023-02-11T13:58:47.891Z,52414.54
2023-02-11T14:01:42.203Z,52408.91
2023-02-11T14:04:42.148Z,52441.46
2023-02-11T14:07:49.560Z,52415.74
2023-02-11T14:10:53.568Z,52413.73
2023-02-11T14:13:28.110Z,52409.71
2023-02-11T14:16:13.722Z,52406.50
2023-02-11T14:19:03.267Z,52425.79
2023-02-11T14:21:40.573Z,52422.97
2023-02-11T14:24:58.102Z,52427.39
2023-02-11T14:27:38.352Z,52414.54
2023-02-11T14:30:21.918Z,52414.54
2023-02-11T14:33:07.672Z,52400.06
2023-02-11T14:35:44.056Z,52431.01
2023-02-11T14:38:21.855Z,52435.83
2023-02-11T14:40:57.401Z,52429.00
2023-02-11T14:43:31.895Z,52415.74
2023-02-11T14:46:09.118Z,52417.35
2023-02-11T14:48:44.698Z,52417.35
2023-02-11T14:51:20.729Z,52426.99
2023-02-11T14:53:54.823Z,52426.59
2023-02-11T14:56:31.282Z,52410.11
2023-02-11T14:59:03.959Z,52423.37
2023-02-11T15:01:41.643Z,52427.80
2023-02-11T15:04:26.730Z,52444.68
2023-02-11T15:07:01.658Z,52423.77
2023-02-11T15:09:39.041Z,52421.77
2023-02-11T15:12:18.153Z,52419.76
2023-02-11T15:14:52.010Z,52430.61
2023-02-11T15:17:27.318Z,52449.90
2023-02-11T15:20:01.708Z,52437.04
2023-02-11T15:22:37.167Z,52438.65
2023-02-11T15:25:17.009Z,52438.24
2023-02-11T15:27:50.778Z,52424.58
2023-02-11T15:30:31.919Z,52430.21
2023-02-11T15:33:07.215Z,52422.17
2023-02-11T15:35:41.453Z,52420.16
2023-02-11T15:38:14.915Z,52436.24
2023-02-11T15:40:55.587Z,52441.46
2023-02-11T15:43:28.558Z,52435.83
2023-02-11T15:46:02.878Z,52433.43
2023-02-11T15:48:38.811Z,52434.23
2023-02-11T15:51:25.782Z,52437.04
2023-02-11T15:53:59.172Z,52430.61
2023-02-11T15:56:33.308Z,52432.62
2023-02-11T15:59:16.009Z,52431.41
2023-02-11T16:01:49.376Z,52431.01
2023-02-11T16:04:24.086Z,52449.50
2023-02-11T16:06:57.467Z,52443.87
2023-02-11T16:09:38.103Z,52424.58
2023-02-11T16:12:27.536Z,52421.37
2023-02-11T16:15:04.342Z,52451.91
2023-02-11T16:17:38.382Z,52447.09
2023-02-11T16:20:20.996Z,52430.21
2023-02-11T16:22:54.952Z,52429.80
2023-02-11T16:25:32.752Z,52446.68
2023-02-11T16:28:07.090Z,52421.77
2023-02-11T16:30:40.656Z,52431.41
2023-02-11T16:33:14.331Z,52443.07
2023-02-11T16:35:49.058Z,52441.05
2023-02-11T16:38:22.230Z,52422.98
2023-02-11T16:40:54.873Z,52425.38
2023-02-11T16:43:29.620Z,52443.87
2023-02-11T16:46:02.761Z,52439.45
2023-02-11T16:48:36.578Z,52437.84
2023-02-11T16:51:10.523Z,52448.69
2023-02-11T16:53:45.771Z,52438.24
2023-02-11T16:56:19.951Z,52443.47
2023-02-11T16:58:52.994Z,52433.02
2023-02-11T17:01:26.171Z,52433.02
2023-02-11T17:03:59.914Z,52446.28
2023-02-11T17:06:32.694Z,52452.30
2023-02-11T17:09:07.074Z,52442.26
2023-02-11T17:11:44.226Z,52415.34
2023-02-11T17:14:17.635Z,52438.64
2023-02-11T17:16:51.058Z,52449.09
2023-02-11T17:19:23.860Z,52428.20
2023-02-11T17:21:56.806Z,52445.07
2023-02-11T17:24:29.713Z,52430.61
2023-02-11T17:27:02.973Z,52441.86
2023-02-11T17:29:36.318Z,52461.96
2023-02-11T17:32:09.810Z,52422.97
2023-02-11T17:34:43.887Z,52445.88
2023-02-11T17:37:16.425Z,52451.51
2023-02-11T17:39:49.090Z,52440.25
2023-02-11T17:42:21.922Z,52422.57
2023-02-11T17:44:54.765Z,52454.72
2023-02-11T17:47:27.664Z,52426.19
2023-02-11T17:50:00.309Z,52439.85
2023-02-11T17:52:34.646Z,52446.28
2023-02-11T17:55:08.694Z,52440.66
2023-02-11T17:57:41.685Z,52446.29
2023-02-11T18:00:17.869Z,52443.06
2023-02-11T18:02:50.801Z,52429.00
2023-02-11T18:05:24.492Z,52432.62
2023-02-11T18:07:57.408Z,52445.48
2023-02-11T18:10:30.854Z,52443.06
2023-02-11T18:13:04.017Z,52437.04
2023-02-11T18:15:42.933Z,52440.66
2023-02-11T18:18:16.021Z,52441.86
2023-02-11T18:20:49.050Z,52441.86
2023-02-11T18:23:22.250Z,52438.64
2023-02-11T18:25:55.454Z,52439.05
2023-02-11T18:28:28.554Z,52457.94
2023-02-11T18:31:01.675Z,52443.07
2023-02-11T18:33:34.945Z,52437.04
2023-02-11T18:36:10.265Z,52457.14
2023-02-11T18:38:45.907Z,52457.94
2023-02-11T18:41:18.876Z,52454.73
2023-02-11T18:43:51.639Z,52433.02
2023-02-11T18:46:24.442Z,52446.28
2023-02-11T18:49:02.179Z,52465.98
2023-02-11T18:51:35.886Z,52435.84
2023-02-11T18:54:09.056Z,52443.47
2023-02-11T18:56:42.076Z,52457.13
2023-02-11T18:59:15.836Z,52439.45
2023-02-11T19:01:48.813Z,52452.71
2023-02-11T19:04:23.578Z,52449.09
2023-02-11T19:06:57.149Z,52438.65
2023-02-11T19:09:34.787Z,52424.18
2023-02-11T19:12:08.788Z,52423.77
2023-02-11T19:14:44.266Z,52438.64
2023-02-11T19:17:17.194Z,52446.29
2023-02-11T19:19:50.103Z,52429.80
2023-02-11T19:22:23.647Z,52443.47
2023-02-11T19:24:56.574Z,52452.31
2023-02-11T19:27:29.424Z,52441.06
2023-02-11T19:30:03.297Z,52447.49
2023-02-11T19:32:36.337Z,52426.99
2023-02-11T19:35:10.154Z,52459.14
2023-02-11T19:37:45.916Z,52450.71
2023-02-11T19:40:19.482Z,52453.92
2023-02-11T19:42:54.684Z,52453.12
2023-02-11T19:45:28.322Z,52437.04
2023-02-11T19:48:01.430Z,52445.48
2023-02-11T19:50:36.737Z,52435.43
2023-02-11T19:53:09.611Z,52450.30
2023-02-11T19:55:44.190Z,52439.05
2023-02-11T19:58:17.275Z,52455.52
2023-02-11T20:00:50.199Z,52447.49
2023-02-11T20:03:23.512Z,52457.14
2023-02-11T20:05:56.266Z,52442.26
2023-02-11T20:08:33.342Z,52449.49
2023-02-11T20:11:10.539Z,52435.03
2023-02-11T20:13:47.569Z,52454.72
2023-02-11T20:16:25.355Z,52449.09
2023-02-11T20:19:01.871Z,52431.01
2023-02-11T20:21:35.270Z,52438.64
2023-02-11T20:24:08.378Z,52455.52
2023-02-11T20:26:42.764Z,52439.05
2023-02-11T20:29:15.883Z,52447.89
2023-02-11T20:31:49.856Z,52448.70
2023-02-11T20:34:22.920Z,52447.49
2023-02-11T20:36:55.859Z,52445.07
2023-02-11T20:39:28.552Z,52447.49
2023-02-11T20:42:02.128Z,52429.00
2023-02-11T20:44:37.031Z,52433.02
2023-02-11T20:47:10.834Z,52428.60
2023-02-11T20:49:44.323Z,52453.51
2023-02-11T20:52:18.175Z,52435.83
2023-02-11T20:54:51.523Z,52437.04
2023-02-11T20:57:24.543Z,52466.77
2023-02-11T20:59:57.363Z,52440.26
2023-02-11T21:02:30.649Z,52431.41
2023-02-11T21:05:03.586Z,52440.26
2023-02-11T21:07:39.109Z,52451.51
2023-02-11T21:10:14.311Z,52448.29
2023-02-11T21:12:50.004Z,52457.13
2023-02-11T21:15:25.475Z,52443.07
2023-02-11T21:17:59.995Z,52425.79
2023-02-11T21:20:32.697Z,52446.28
2023-02-11T21:23:06.093Z,52450.30
2023-02-11T21:25:41.976Z,52439.05
2023-02-11T21:28:16.984Z,52439.05
2023-02-11T21:30:50.805Z,52439.05
2023-02-11T21:33:23.666Z,52437.44
2023-02-11T21:35:58.855Z,52451.11
2023-02-11T21:38:34.960Z,52451.91
2023-02-11T21:41:08.425Z,52430.21
2023-02-11T21:43:44.055Z,52437.45
2023-02-11T21:46:17.541Z,52446.69
2023-02-11T21:48:50.284Z,52445.07
2023-02-11T21:51:24.956Z,52436.64
2023-02-11T21:53:58.526Z,52423.77
2023-02-11T21:56:31.693Z,52471.60
2023-02-11T21:59:04.502Z,52455.13
2023-02-11T22:01:37.431Z,52450.71
2023-02-11T22:04:10.952Z,52434.23
2023-02-11T22:06:46.961Z,52462.76
2023-02-11T22:09:23.714Z,52435.83
2023-02-11T22:11:56.697Z,52431.01
2023-02-11T22:14:32.197Z,52451.51
2023-02-11T22:17:05.696Z,52449.50
2023-02-11T22:19:38.598Z,52436.24
2023-02-11T22:22:11.400Z,52445.88
2023-02-11T22:24:46.107Z,52448.70
2023-02-11T22:27:20.340Z,52443.47
2023-02-11T22:29:53.454Z,52465.98
2023-02-11T22:32:26.436Z,52450.30
2023-02-11T22:34:59.217Z,52441.86
2023-02-11T22:37:32.658Z,52448.70
2023-02-11T22:40:06.121Z,52442.26
2023-02-11T22:42:39.361Z,52466.77
2023-02-11T22:45:12.979Z,52449.09
2023-02-11T22:47:46.676Z,52448.29
2023-02-11T22:50:19.819Z,52452.31
2023-02-11T22:52:52.971Z,52455.13
2023-02-11T22:55:26.007Z,52457.94
2023-02-11T22:57:59.605Z,52448.70
2023-02-11T23:00:32.521Z,52468.39
2023-02-11T23:03:05.381Z,52461.96
2023-02-11T23:05:42.782Z,52448.70
2023-02-11T23:08:15.962Z,52463.16
2023-02-11T23:10:49.626Z,52439.85
2023-02-11T23:13:25.110Z,52453.52
2023-02-11T23:15:58.119Z,52457.94
2023-02-11T23:18:31.762Z,52455.12
2023-02-11T23:21:09.478Z,52447.09
2023-02-11T23:23:43.838Z,52473.21
2023-02-11T23:26:17.727Z,52457.94
2023-02-11T23:28:50.930Z,52455.93
2023-02-11T23:31:24.828Z,52434.23
2023-02-11T23:33:57.956Z,52449.90
2023-02-11T23:36:32.121Z,52444.68
2023-02-11T23:39:08.967Z,52463.56
2023-02-11T23:41:42.547Z,52457.94
2023-02-11T23:44:15.584Z,52452.71
2023-02-11T23:46:49.098Z,52443.47
2023-02-11T23:49:22.296Z,52465.98
2023-02-11T23:51:55.230Z,52441.86
2023-02-11T23:54:28.651Z,52459.54
2023-02-11T23:57:01.658Z,52428.60
2023-02-11T23:59:34.784Z,52464.37
